»·PEaware :: SWA4158 KMSP-KDEN

SWA4158 :: KMSP-KDEN

FLIGHT INFORMATION

Flight Status: Arrived
Operator:
Southwest Airlines
More flights by this operator :: More flights under this callsign
Pilot: Ben F. (2808)
Aircraft: BOEING 737-800
(B738)
More flights by this aircraft type
Origin: KMSP Minneapolis-St Paul Intl
United States
Destination: KDEN Denver Intl
United States
More flights between these airports :: More routes between these airports
Route: SCHEP9 ONL KIPPR5
File this flight plan on PilotEdge
Remarks:
Altitude:
(Current/Filed)
36,000ft
Speed:
(Current/Filed)
461kts
Departed: 30-Sep-18 08:59 AM
Arrived: 30-Sep-18 10:45 AM
Distance/Time
Traveled:
589nm/1:46
Distance/Time
To Go:
Arrived

Flight Plot

Page will automatically refresh every two minutes.

Flight plan parsing failed; only flown route is shown


Map Options




Map Legend


Flown Route
Filed Route
Departure Airport
Arrival Airport
Navaid (VOR, NDB)
Fix

Horizontal Profiles

Position Reports

Time Latitude Longitude Heading Altitude Ground
Speed
30-Sep-18 08:42 44.876344 -93.226585 134 849ft 0kts
30-Sep-18 08:43 44.876344 -93.226585 134 849ft 0kts
30-Sep-18 08:44 44.876344 -93.226585 134 849ft 0kts
30-Sep-18 08:45 44.876344 -93.226585 134 849ft 0kts
30-Sep-18 08:46 44.876344 -93.226585 134 849ft 0kts
30-Sep-18 08:47 44.876344 -93.226585 134 849ft 0kts
30-Sep-18 08:48 44.876344 -93.226585 134 849ft 0kts
30-Sep-18 08:49 44.876344 -93.226585 134 849ft 0kts
30-Sep-18 08:50 44.876550 -93.226876 135 849ft 2kts
30-Sep-18 08:51 44.876885 -93.227587 80 849ft 2kts
30-Sep-18 08:52 44.876755 -93.227892 45 849ft 0kts
30-Sep-18 08:53 44.876755 -93.227892 45 849ft 0kts
30-Sep-18 08:54 44.877704 -93.226616 21 849ft 10kts
30-Sep-18 08:55 44.881866 -93.222291 45 849ft 20kts
30-Sep-18 08:56 44.885198 -93.217963 45 849ft 21kts
30-Sep-18 08:57 44.889621 -93.211714 44 849ft 23kts
30-Sep-18 08:58 44.892779 -93.207619 353 849ft 0kts
30-Sep-18 08:59 44.892780 -93.207619 353 849ft 0kts
30-Sep-18 09:00 44.893246 -93.208084 294 849ft 12kts
30-Sep-18 09:01 44.877694 -93.230441 237 982ft 147kts
30-Sep-18 09:02 44.850986 -93.281255 241 2937ft 181kts
30-Sep-18 09:03 44.817302 -93.358351 239 4942ft 264kts
30-Sep-18 09:04 44.776775 -93.448604 240 8468ft 279kts
30-Sep-18 09:05 44.735292 -93.540485 240 12038ft 284kts
30-Sep-18 09:06 44.687641 -93.643592 238 13972ft 333kts
30-Sep-18 09:07 44.632019 -93.749364 238 16967ft 339kts
30-Sep-18 09:08 44.575546 -93.857517 239 19511ft 349kts
30-Sep-18 09:09 44.517281 -93.969024 238 21748ft 360kts
30-Sep-18 09:10 44.456900 -94.083673 238 23663ft 371kts
30-Sep-18 09:11 44.405325 -94.181704 239 25114ft 379kts
30-Sep-18 09:12 44.331195 -94.321571 238 26940ft 389kts
30-Sep-18 09:13 44.276817 -94.423487 239 28091ft 395kts
30-Sep-18 09:14 44.199149 -94.568500 239 29572ft 403kts
30-Sep-18 09:15 44.143673 -94.671485 239 31087ft 395kts
30-Sep-18 09:16 44.067594 -94.812106 239 33061ft 384kts
30-Sep-18 09:17 44.014459 -94.910613 240 34328ft 378kts
30-Sep-18 09:18 43.951011 -95.027978 239 35358ft 381kts
30-Sep-18 09:19 43.887306 -95.144973 239 36333ft 381kts
30-Sep-18 09:20 43.823575 -95.261872 239 36340ft 376kts
30-Sep-18 09:21 43.760253 -95.377282 239 36342ft 377kts
30-Sep-18 09:22 43.696750 -95.492077 239 36341ft 376kts
30-Sep-18 09:23 43.637555 -95.610082 248 36339ft 369kts
30-Sep-18 09:24 43.591431 -95.736425 248 36338ft 367kts
30-Sep-18 09:25 43.545638 -95.861981 248 36336ft 367kts
30-Sep-18 09:26 43.499569 -95.987908 248 36336ft 369kts
30-Sep-18 09:27 43.453882 -96.114225 248 36339ft 368kts
30-Sep-18 09:28 43.407812 -96.240607 248 36340ft 370kts
30-Sep-18 09:29 43.361407 -96.367011 247 36340ft 371kts
30-Sep-18 09:30 43.314706 -96.493525 247 36339ft 371kts
30-Sep-18 09:31 43.267588 -96.620528 247 36338ft 372kts
30-Sep-18 09:32 43.220486 -96.746910 247 36338ft 373kts
30-Sep-18 09:33 43.172923 -96.873931 247 36337ft 374kts
30-Sep-18 09:34 43.125325 -97.000480 247 36337ft 374kts
30-Sep-18 09:35 43.077448 -97.127204 246 36338ft 375kts
30-Sep-18 09:36 43.029368 -97.253890 246 36339ft 376kts
30-Sep-18 09:37 42.981020 -97.380715 246 36339ft 376kts
30-Sep-18 09:38 42.932447 -97.507565 246 36340ft 377kts
30-Sep-18 09:39 42.883750 -97.634179 246 36338ft 377kts
30-Sep-18 09:40 42.834848 -97.760762 246 36335ft 379kts
30-Sep-18 09:41 42.785600 -97.887678 245 36331ft 380kts
30-Sep-18 09:42 42.736084 -98.014728 245 36328ft 380kts
30-Sep-18 09:43 42.686242 -98.142044 245 36325ft 380kts
30-Sep-18 09:44 42.636366 -98.268897 245 36323ft 381kts
30-Sep-18 09:45 42.586604 -98.395719 245 36321ft 381kts
30-Sep-18 09:46 42.536373 -98.522117 245 36320ft 381kts
30-Sep-18 09:47 42.485935 -98.648312 245 36320ft 381kts
30-Sep-18 09:48 42.432627 -98.772742 242 36319ft 382kts
30-Sep-18 09:49 42.377058 -98.895746 242 36317ft 381kts
30-Sep-18 09:50 42.321911 -99.017677 242 36314ft 381kts
30-Sep-18 09:51 42.266793 -99.140049 242 36308ft 381kts
30-Sep-18 09:52 42.211537 -99.262684 242 36306ft 382kts
30-Sep-18 09:53 42.156047 -99.384975 242 36304ft 382kts
30-Sep-18 09:54 42.100403 -99.506970 242 36302ft 382kts
30-Sep-18 09:55 42.044388 -99.629236 242 36301ft 384kts
30-Sep-18 09:56 41.988290 -99.751176 241 36307ft 384kts
30-Sep-18 09:57 41.931669 -99.873746 241 36303ft 384kts
30-Sep-18 09:58 41.875118 -99.995667 241 36301ft 385kts
30-Sep-18 09:59 41.818365 -100.117543 241 36303ft 385kts
30-Sep-18 10:00 41.761557 -100.239050 241 36304ft 386kts
30-Sep-18 10:01 41.704356 -100.360914 241 36304ft 386kts
30-Sep-18 10:02 41.647265 -100.482731 241 36304ft 388kts
30-Sep-18 10:03 41.589555 -100.604414 241 36301ft 389kts
30-Sep-18 10:04 41.532092 -100.726699 244 36298ft 388kts
30-Sep-18 10:05 41.490154 -100.858880 249 36292ft 386kts
30-Sep-18 10:06 41.449557 -100.991458 249 36290ft 387kts
30-Sep-18 10:07 41.408677 -101.124408 249 36289ft 387kts
30-Sep-18 10:08 41.368067 -101.256974 249 36286ft 387kts
30-Sep-18 10:09 41.327302 -101.389415 249 36284ft 387kts
30-Sep-18 10:10 41.286710 -101.522313 249 36282ft 387kts
30-Sep-18 10:11 41.245975 -101.654430 248 36280ft 387kts
30-Sep-18 10:12 41.204778 -101.786430 248 36280ft 387kts
30-Sep-18 10:13 41.164098 -101.918519 249 36280ft 388kts
30-Sep-18 10:14 41.123415 -102.051521 248 36281ft 386kts
30-Sep-18 10:15 41.082892 -102.182725 248 36282ft 382kts
30-Sep-18 10:16 41.042204 -102.312912 247 36284ft 382kts
30-Sep-18 10:17 41.000873 -102.442480 247 36285ft 382kts
30-Sep-18 10:18 40.959193 -102.572522 247 36285ft 383kts
30-Sep-18 10:19 40.917470 -102.702672 247 36286ft 383kts
30-Sep-18 10:20 40.876386 -102.832153 247 36285ft 382kts
30-Sep-18 10:21 40.834534 -102.961295 247 35503ft 379kts
30-Sep-18 10:22 40.792655 -103.089738 246 32644ft 384kts
30-Sep-18 10:23 40.750474 -103.218420 246 30380ft 375kts
30-Sep-18 10:24 40.709864 -103.342888 246 28368ft 364kts
30-Sep-18 10:25 40.670062 -103.463755 246 26402ft 355kts
30-Sep-18 10:26 40.631012 -103.581243 246 24486ft 347kts
30-Sep-18 10:27 40.584544 -103.690721 231 22597ft 341kts
30-Sep-18 10:28 40.520343 -103.781335 228 20748ft 336kts
30-Sep-18 10:29 40.455929 -103.869243 227 18933ft 331kts
30-Sep-18 10:30 40.394162 -103.953278 227 17829ft 310kts
30-Sep-18 10:31 40.360340 -104.047482 262 16828ft 291kts
30-Sep-18 10:32 40.356384 -104.152800 266 15549ft 288kts
30-Sep-18 10:33 40.354521 -104.254683 266 14694ft 261kts
30-Sep-18 10:34 40.353122 -104.344874 266 14150ft 240kts
30-Sep-18 10:35 40.351788 -104.433133 266 13326ft 239kts
30-Sep-18 10:36 40.350302 -104.519761 266 12441ft 237kts
30-Sep-18 10:37 40.342660 -104.602811 254 11956ft 218kts
30-Sep-18 10:38 40.312277 -104.671431 208 11781ft 240kts
30-Sep-18 10:39 40.244770 -104.683550 181 10642ft 253kts
30-Sep-18 10:40 40.177045 -104.683573 181 10028ft 226kts
30-Sep-18 10:41 40.117367 -104.684252 181 9326ft 205kts
30-Sep-18 10:42 40.063889 -104.684874 179 8481ft 176kts
30-Sep-18 10:43 40.015081 -104.685440 180 7720ft 175kts
30-Sep-18 10:44 39.965635 -104.686015 180 6769ft 173kts
30-Sep-18 10:45 39.919344 -104.686585 180 5892ft 160kts
30-Sep-18 10:46 39.880939 -104.687030 180 5439ft 66kts
30-Sep-18 10:47 39.876109 -104.685463 152 5439ft 11kts
30-Sep-18 10:48 39.872624 -104.683818 180 5439ft 20kts
30-Sep-18 10:49 39.866919 -104.683869 180 5439ft 22kts
30-Sep-18 10:50 39.864801 -104.681318 74 5439ft 15kts
30-Sep-18 10:51 39.864211 -104.674907 90 5439ft 18kts
30-Sep-18 10:52 39.863841 -104.671469 218 5439ft 4kts

Navigation Log

Ident Type
Flight plan parsing failed, navigation log unavailable